Pagrindinis puslapis
METAR-TAF:

METAR-TAF

Oro uostai :

Igloolik, Nunavutas, Kanada

platuma: 69-22N, ilguma: 081-49W, Aukštis: 51 m

Dabartinis oras

Ataskaita buvo paskelbta 1 valandą ir 12 minutes, ne 19:00 UTC
Vėjas 6 kt iš Šiaurės
Temperatūra -33°C
Drėgmė 67%
Slėgis 1002 hPa
Matomumas: 24.1 km
Mažai debesys ne aukštis 5300 ft

METAR: CYGT 201900Z 01006KT 15SM FEW053 M33/M37 A2959 RMK SC1 SC TR SLP032

Laikas: 15:12 (20:12 UTC)

Prognozė

Ataskaita buvo paskelbta 1 valandą ir 34 minutes, ne 18:38 UTC
Prognozė galioja nuo 20 metu 19 UTC su 20 metu 22 UTC
Vėjas 8 kt iš Šiaurės/Šiaurės Vakarų
Matomumas: 10 km
Giedras dangus

TAF: CYGT 201838Z 2019/2022 34008KT P6SM SKC RMK NXT FCST WILL BE ISSUED AT 211245Z

Orai ataskaitas ir orų prognozės (METAR, TAF).

turimą stotys yra geltonos ir raudonos taškus žemėlapyje.

Perkelti pele per norėdami pamatyti stoties vardą.

Tada spustelėkite, norėdami matyti oro stebėjimo ir prognozės.

Norėdami pakeisti žemėlapį: spustelėkite ant žalios mygtukų su juodo kryžiaus žemyn,; žalią mygtuką su brūkšneliu, jei norite nutolinti; arba žalių rodyklių gretimoms žemėlapius.


METAR-TAF: